Santa Teresa, NM

10:24 PM MDT on August 28, 2014 (GMT -0600)
Santa Teresa | Change Station
CLOSE
Current Station
Personal Weather Station
Location: Santa Teresa, NM
Elevation: 3811 ft
Nearby Weather Stations

Elev 3811 ft 31.87 °N, 106.65 °W | Updated 50 seconds ago

Clear
Clear
76.6 °F
Feels Like 78 °F
N
0.0
Wind Variable Wind from NNE
Gusts 2.0 mph

Today
High -- | Low -- °F
--% Chance of Precip.
Yesterday
High -- | Low -- °F
Precip. -- in
6:39 AM 7:35 PM
Waxing Crescent, 12% visible
Pressure 29.84 in
Visibility 10.0 miles
Clouds Clear
Heat Index 78 °F
Dew Point 49 °F
Humidity 38%
Rainfall 0.00 in
Snow Depth Not available.
UV 0 out of 12
Pollen 9.30 out of 12
Air Quality Not available.
Flu Activity Not available.
METAR KBIF 290356Z AUTO 01003KT 10SM CLR 26/11 A3003 RMK AO2 SLP103 T02560107 $

More Conditions Fewer Conditions

Pressure 29.84 in
Visibility 10.0 miles
Clouds Clear
Heat Index 78 °F
Dew Point 49 °F
Humidity 38%
Rainfall 0.00 in
Snow Depth Not available.
UV 0 out of 12
Pollen 9.30 out of 12
Air Quality Not available.
Flu Activity Not available.
METAR KBIF 290356Z AUTO 01003KT 10SM CLR 26/11 A3003 RMK AO2 SLP103 T02560107 $

More Conditions Fewer Conditions

10-Day Weather Forecast

Almanac

Astronomy

Aug. 28, 2014 Rise Set
Actual Time 6:39 AM MDT 7:35 PM MDT
Civil Twilight 6:14 AM MDT 8:00 PM MDT
Nautical Twilight 5:45 AM MDT 8:30 PM MDT
Astronomical Twilight 5:14 AM MDT 9:00 PM MDT
Moon 9:21 AM MDT (8/28) 9:15 PM MDT (8/28)
Length of Visible Light 13h 45m
Length of Day
12h 55m
Tomorrow will be 1m 51s shorter.
Waxing Crescent, 12% of the Moon is Illuminated
Aug 29
Waxing Crescent
Sep 2
First Quarter
Sep 8
Full
Sep 15
Last Quarter
Sep 24
New

Today's Extremes

State Highs State Lows

Community

WunderPhotos

Upload Photos

1,748,185 photos uploaded!

Nearby

Snow Depth

Station Depth Elevation
Sierra Blanca 1 in 10280 ft
Silver Creek Divide 13 in 9000 ft
Wesner Springs 1 in 11120 ft
Quemazon 1 in 9500 ft
Gallegos Peak 0 in 9800 ft

Earthquake Activity

City Distance Mag. Time & Date
No recent earthquake activity has been reported nearby.
Minimum magnitude displayed is 2.5.

Coastal Water Temperatures

Place Temperature
No Stations Reporting

Nearby Weather Stations